createdAt,value
2023-02-17T00:04:55.204Z,32.40
2023-02-17T00:09:57.041Z,36.80
2023-02-17T00:14:58.557Z,29.40
2023-02-17T00:20:00.271Z,29.90
2023-02-17T00:25:01.795Z,29.50
2023-02-17T00:30:04.041Z,24.80
2023-02-17T00:35:06.337Z,39.50
2023-02-17T00:40:08.654Z,29.80
2023-02-17T00:45:10.221Z,31.70
2023-02-17T00:50:11.822Z,32.70
2023-02-17T00:55:13.316Z,31.80
2023-02-17T01:00:15.931Z,35.20
2023-02-17T01:05:17.509Z,30.80
2023-02-17T01:10:19.092Z,31.80
2023-02-17T01:15:20.602Z,32.20
2023-02-17T01:20:22.129Z,33.30
2023-02-17T01:25:24.124Z,31.90
2023-02-17T01:30:25.898Z,30.30
2023-02-17T01:35:27.593Z,29.40
2023-02-17T01:40:30.198Z,24.40
2023-02-17T01:45:35.593Z,31.00
2023-02-17T01:50:45.913Z,32.20
2023-02-17T01:55:48.300Z,32.00
2023-02-17T02:00:53.314Z,29.70
2023-02-17T02:05:55.854Z,30.00
2023-02-17T02:10:57.365Z,27.80
2023-02-17T02:16:13.493Z,29.40
2023-02-17T02:21:54.092Z,31.50
2023-02-17T02:27:27.093Z,28.50
2023-02-17T02:32:46.882Z,31.40
2023-02-17T02:38:06.643Z,25.60
2023-02-17T02:43:09.431Z,24.20
2023-02-17T02:48:11.332Z,30.50
2023-02-17T02:53:35.992Z,21.00
2023-02-17T02:59:01.225Z,29.10
2023-02-17T03:04:14.248Z,28.70
2023-02-17T03:09:28.992Z,25.30
2023-02-17T03:14:38.432Z,29.40
2023-02-17T03:19:39.929Z,28.40
2023-02-17T03:24:41.496Z,31.70
2023-02-17T03:29:43.193Z,27.60
2023-02-17T03:34:44.714Z,23.20
2023-02-17T03:39:46.535Z,28.80
2023-02-17T03:44:48.123Z,31.40
2023-02-17T03:49:51.286Z,29.90
2023-02-17T03:54:53.283Z,27.70
2023-02-17T03:59:54.795Z,25.70
2023-02-17T04:04:56.338Z,28.10
2023-02-17T04:09:57.886Z,28.80
2023-02-17T04:14:59.385Z,27.80
2023-02-17T04:20:00.894Z,28.00
2023-02-17T04:25:02.432Z,33.30
2023-02-17T04:30:05.109Z,30.80
2023-02-17T04:35:07.460Z,29.50
2023-02-17T04:40:10.553Z,30.30
2023-02-17T04:45:13.151Z,27.30
2023-02-17T04:50:15.032Z,32.10
2023-02-17T04:55:16.601Z,28.20
2023-02-17T05:00:18.924Z,34.50
2023-02-17T05:05:21.190Z,24.20
2023-02-17T05:10:24.073Z,23.90
2023-02-17T05:15:25.700Z,29.00
2023-02-17T05:20:27.266Z,26.80
2023-02-17T05:25:29.414Z,28.30
2023-02-17T05:30:31.081Z,30.50
2023-02-17T05:35:35.199Z,24.00
2023-02-17T05:45:38.606Z,26.20
2023-02-17T05:50:40.171Z,27.20
2023-02-17T05:55:41.705Z,24.00
2023-02-17T06:00:43.334Z,27.00
2023-02-17T06:05:45.869Z,29.50
2023-02-17T06:10:47.357Z,28.30
2023-02-17T06:15:48.950Z,31.00
2023-02-17T06:20:50.617Z,23.80
2023-02-17T06:25:53.497Z,31.80
2023-02-17T06:30:55.105Z,30.80
2023-02-17T06:35:56.741Z,26.50
2023-02-17T06:40:58.232Z,27.60
2023-02-17T06:45:59.807Z,19.90
2023-02-17T06:51:01.308Z,29.30
2023-02-17T06:56:02.841Z,28.90
2023-02-17T07:01:04.691Z,32.30
2023-02-17T07:06:06.472Z,28.10
2023-02-17T07:11:09.939Z,24.30
2023-02-17T07:16:13.198Z,29.20
2023-02-17T07:21:14.918Z,33.10
2023-02-17T07:26:16.493Z,28.00
2023-02-17T07:31:18.278Z,26.00
2023-02-17T07:36:20.236Z,23.90
2023-02-17T07:41:32.078Z,27.20
2023-02-17T07:46:33.742Z,22.20
2023-02-17T07:51:35.417Z,28.40
2023-02-17T07:56:36.880Z,23.60
2023-02-17T08:01:39.157Z,26.40
2023-02-17T08:06:40.822Z,16.60
2023-02-17T08:12:01.593Z,25.60
2023-02-17T08:17:03.112Z,27.40
2023-02-17T08:22:04.785Z,27.50
2023-02-17T08:27:06.380Z,25.80
2023-02-17T08:32:09.058Z,30.80
2023-02-17T08:37:11.567Z,25.70
2023-02-17T08:42:13.354Z,24.70
2023-02-17T08:47:15.267Z,24.70
2023-02-17T08:52:16.854Z,23.00
2023-02-17T08:57:19.145Z,23.70
2023-02-17T09:02:20.895Z,23.40
2023-02-17T09:07:23.038Z,21.00
2023-02-17T09:12:24.655Z,24.80
2023-02-17T09:17:26.276Z,23.10
2023-02-17T09:22:32.017Z,23.60
2023-02-17T09:27:34.112Z,25.30
2023-02-17T09:32:35.635Z,24.60
2023-02-17T09:37:37.248Z,19.00
2023-02-17T09:42:40.967Z,26.00
2023-02-17T09:53:01.351Z,22.30
2023-02-17T09:58:28.777Z,25.60
2023-02-17T10:09:03.538Z,20.50
2023-02-17T10:14:37.428Z,24.60
2023-02-17T10:19:47.518Z,24.30
2023-02-17T10:24:49.358Z,22.80
2023-02-17T10:30:06.918Z,22.50
2023-02-17T10:35:18.177Z,23.60
2023-02-17T10:40:25.966Z,21.90
2023-02-17T10:45:35.214Z,25.60
2023-02-17T10:50:38.306Z,24.40
2023-02-17T10:55:53.287Z,26.10
2023-02-17T11:00:56.930Z,27.20
2023-02-17T11:11:07.808Z,29.60
2023-02-17T11:16:27.232Z,26.30
2023-02-17T11:21:30.351Z,29.00
2023-02-17T11:26:36.552Z,27.50
2023-02-17T11:31:38.401Z,30.40
2023-02-17T11:36:40.566Z,29.10
2023-02-17T11:41:42.154Z,35.00
2023-02-17T11:46:55.713Z,26.00
2023-02-17T11:52:03.007Z,28.50
2023-02-17T11:57:26.336Z,26.20
2023-02-17T12:02:46.770Z,26.00
2023-02-17T12:08:19.235Z,29.40
2023-02-17T12:13:56.478Z,24.60
2023-02-17T12:19:32.037Z,26.10
2023-02-17T12:24:55.377Z,23.20
2023-02-17T12:30:19.057Z,21.40
2023-02-17T12:35:27.158Z,19.30
2023-02-17T12:40:32.971Z,21.60
2023-02-17T12:45:40.384Z,18.40
2023-02-17T12:51:09.657Z,20.90
2023-02-17T12:56:31.341Z,20.00
2023-02-17T13:01:33.022Z,20.10
2023-02-17T13:06:41.426Z,18.50
2023-02-17T13:11:45.718Z,18.20
2023-02-17T13:16:47.707Z,19.30
2023-02-17T13:21:54.940Z,23.00
2023-02-17T13:26:56.698Z,22.20
2023-02-17T13:32:02.407Z,17.90
2023-02-17T13:37:32.020Z,18.00
2023-02-17T13:42:40.268Z,20.90
2023-02-17T13:47:42.877Z,24.50
2023-02-17T13:52:44.417Z,18.80
2023-02-17T13:57:51.238Z,21.90
2023-02-17T14:02:59.401Z,19.60
2023-02-17T14:08:13.381Z,20.50
2023-02-17T14:13:15.488Z,24.20
2023-02-17T14:18:29.701Z,22.60
2023-02-17T14:23:52.298Z,21.50
2023-02-17T14:29:02.825Z,17.80
2023-02-17T14:34:04.622Z,18.60
2023-02-17T14:39:09.293Z,22.70
2023-02-17T14:44:10.825Z,19.00
2023-02-17T14:49:12.317Z,16.50
2023-02-17T14:54:18.174Z,17.60
2023-02-17T14:59:19.710Z,21.40
2023-02-17T15:04:21.318Z,22.00
2023-02-17T15:09:30.819Z,18.10
2023-02-17T15:14:32.433Z,21.30
2023-02-17T15:19:34.165Z,20.00
2023-02-17T15:24:36.302Z,19.30
2023-02-17T15:29:37.818Z,20.20
2023-02-17T15:34:39.524Z,21.50
2023-02-17T15:39:41.098Z,22.00
2023-02-17T15:44:50.410Z,18.30
2023-02-17T15:49:51.902Z,23.70
2023-02-17T15:55:00.712Z,22.00
2023-02-17T16:00:02.524Z,19.50
2023-02-17T16:05:04.170Z,23.90
2023-02-17T16:10:07.224Z,26.00
2023-02-17T16:15:15.399Z,24.30
2023-02-17T16:20:21.085Z,17.90
2023-02-17T16:25:23.204Z,31.60
2023-02-17T16:30:30.527Z,36.40
2023-02-17T16:35:33.222Z,13.60
2023-02-17T16:40:37.125Z,15.90
2023-02-17T16:45:56.256Z,19.10
2023-02-17T16:50:57.949Z,23.70
2023-02-17T16:55:59.542Z,21.00
2023-02-17T17:01:01.034Z,18.60
2023-02-17T17:06:15.443Z,15.20
2023-02-17T17:11:19.875Z,27.00
2023-02-17T17:16:26.196Z,28.50
2023-02-17T17:21:28.572Z,32.10
2023-02-17T17:26:36.518Z,27.10
2023-02-17T17:31:39.438Z,18.50
2023-02-17T17:36:46.389Z,24.40
2023-02-17T17:41:48.296Z,25.00
2023-02-17T17:46:50.030Z,27.90
2023-02-17T17:51:51.532Z,20.10
2023-02-17T17:56:53.489Z,18.30
2023-02-17T18:01:54.996Z,19.00
2023-02-17T18:06:57.797Z,17.70
2023-02-17T18:12:04.442Z,12.20
2023-02-17T18:17:08.281Z,14.40
2023-02-17T18:22:09.789Z,17.80
2023-02-17T18:27:11.832Z,14.00
2023-02-17T18:32:13.369Z,13.70
2023-02-17T18:37:15.990Z,12.30
2023-02-17T18:42:17.560Z,15.00
2023-02-17T18:47:20.191Z,13.80
2023-02-17T18:52:21.855Z,20.00
2023-02-17T18:57:23.376Z,12.20
2023-02-17T19:02:25.984Z,12.80
2023-02-17T19:07:27.897Z,12.90
2023-02-17T19:12:30.650Z,14.00
2023-02-17T19:17:32.236Z,12.10
2023-02-17T19:22:37.631Z,12.90
2023-02-17T19:27:42.147Z,14.20
2023-02-17T19:32:44.138Z,13.10
2023-02-17T19:37:45.684Z,13.90
2023-02-17T19:42:47.593Z,13.50
2023-02-17T19:47:49.074Z,11.20
2023-02-17T19:52:50.737Z,13.20
2023-02-17T19:57:53.198Z,14.00
2023-02-17T20:02:54.686Z,12.80
2023-02-17T20:07:57.267Z,13.50
2023-02-17T20:12:58.809Z,12.50
2023-02-17T20:18:00.376Z,13.60
2023-02-17T20:23:01.966Z,12.70
2023-02-17T20:28:03.586Z,13.10
2023-02-17T20:33:05.213Z,13.40
2023-02-17T20:38:08.004Z,13.70
2023-02-17T20:43:12.362Z,13.50
2023-02-17T20:48:13.973Z,11.60
2023-02-17T20:53:15.511Z,14.30
2023-02-17T20:58:17.370Z,15.20
2023-02-17T21:03:19.040Z,12.30
2023-02-17T21:08:20.616Z,10.60
2023-02-17T21:13:23.000Z,11.20
2023-02-17T21:18:24.568Z,12.20
2023-02-17T21:23:26.091Z,11.60
2023-02-17T21:28:27.654Z,10.50
2023-02-17T21:33:29.352Z,11.20
2023-02-17T21:38:30.913Z,11.90
2023-02-17T21:43:51.665Z,11.00
2023-02-17T21:48:53.677Z,11.10
2023-02-17T21:53:55.752Z,14.10
2023-02-17T21:58:57.320Z,13.90
2023-02-17T22:03:58.906Z,9.10
2023-02-17T22:09:01.017Z,4.90
2023-02-17T22:14:05.590Z,4.20
2023-02-17T22:19:08.821Z,3.70
2023-02-17T22:24:10.616Z,2.50
2023-02-17T22:29:12.144Z,2.50
2023-02-17T22:34:14.701Z,2.70
2023-02-17T22:39:16.373Z,2.50
2023-02-17T22:44:18.348Z,3.00
2023-02-17T22:49:19.853Z,2.50
2023-02-17T22:54:21.469Z,2.90
2023-02-17T22:59:23.098Z,2.30
2023-02-17T23:04:24.863Z,2.50
2023-02-17T23:09:26.414Z,3.30
2023-02-17T23:14:34.837Z,1.50
2023-02-17T23:19:37.299Z,2.30
2023-02-17T23:24:38.812Z,3.00
2023-02-17T23:29:41.336Z,2.10
2023-02-17T23:34:42.844Z,2.50
2023-02-17T23:39:44.427Z,2.40
2023-02-17T23:44:45.902Z,3.40
2023-02-17T23:49:47.423Z,2.30
2023-02-17T23:54:48.918Z,2.10
2023-02-17T23:59:50.446Z,2.20
